sensor_id;sensor_type;location;lat;lon;timestamp;pressure;altitude;pressure_sealevel;temperature;humidity
4617;BME280;2321;42.704;23.384;2023-02-22T00:01:41;95434.69;;;7.04;nan
4617;BME280;2321;42.704;23.384;2023-02-22T00:04:15;95431.69;;;7.07;nan
4617;BME280;2321;42.704;23.384;2023-02-22T00:06:46;95441.81;;;7.04;nan
4617;BME280;2321;42.704;23.384;2023-02-22T00:09:15;95435.06;;;6.93;nan
4617;BME280;2321;42.704;23.384;2023-02-22T00:11:46;95445.13;;;6.97;nan
4617;BME280;2321;42.704;23.384;2023-02-22T00:14:13;95429.41;;;6.88;nan
4617;BME280;2321;42.704;23.384;2023-02-22T00:16:40;95435.88;;;6.85;nan
4617;BME280;2321;42.704;23.384;2023-02-22T00:19:07;95437.88;;;6.83;nan
4617;BME280;2321;42.704;23.384;2023-02-22T00:21:34;95436.84;;;6.84;nan
4617;BME280;2321;42.704;23.384;2023-02-22T00:24:02;95435.84;;;6.93;nan
4617;BME280;2321;42.704;23.384;2023-02-22T00:26:48;95430.75;;;6.92;nan
4617;BME280;2321;42.704;23.384;2023-02-22T00:29:15;95435.38;;;6.90;nan
4617;BME280;2321;42.704;23.384;2023-02-22T00:31:43;95436.06;;;6.83;nan
4617;BME280;2321;42.704;23.384;2023-02-22T00:34:10;95434.22;;;6.84;nan
4617;BME280;2321;42.704;23.384;2023-02-22T00:36:36;95438.38;;;6.86;nan
4617;BME280;2321;42.704;23.384;2023-02-22T00:39:03;95438.22;;;6.71;nan
4617;BME280;2321;42.704;23.384;2023-02-22T00:41:32;95428.28;;;6.57;nan
4617;BME280;2321;42.704;23.384;2023-02-22T00:44:00;95433.09;;;6.61;nan
4617;BME280;2321;42.704;23.384;2023-02-22T00:46:27;95432.78;;;6.56;nan
4617;BME280;2321;42.704;23.384;2023-02-22T00:48:54;95426.63;;;6.47;nan
4617;BME280;2321;42.704;23.384;2023-02-22T00:51:24;95423.50;;;6.60;nan
4617;BME280;2321;42.704;23.384;2023-02-22T00:53:51;95417.38;;;6.68;nan
4617;BME280;2321;42.704;23.384;2023-02-22T00:56:18;95417.22;;;6.53;nan
4617;BME280;2321;42.704;23.384;2023-02-22T00:58:44;95424.66;;;6.49;nan
4617;BME280;2321;42.704;23.384;2023-02-22T01:01:13;95409.78;;;6.48;nan
4617;BME280;2321;42.704;23.384;2023-02-22T01:03:40;95414.56;;;6.36;nan
4617;BME280;2321;42.704;23.384;2023-02-22T01:06:07;95409.28;;;6.28;nan
4617;BME280;2321;42.704;23.384;2023-02-22T01:08:33;95414.25;;;6.31;nan
4617;BME280;2321;42.704;23.384;2023-02-22T01:11:00;95419.50;;;6.23;nan
4617;BME280;2321;42.704;23.384;2023-02-22T01:13:27;95403.97;;;6.11;nan
4617;BME280;2321;42.704;23.384;2023-02-22T01:15:54;95405.47;;;6.14;nan
4617;BME280;2321;42.704;23.384;2023-02-22T01:18:23;95403.50;;;6.16;nan
4617;BME280;2321;42.704;23.384;2023-02-22T01:20:50;95401.44;;;6.01;nan
4617;BME280;2321;42.704;23.384;2023-02-22T01:23:17;95404.28;;;5.99;nan
4617;BME280;2321;42.704;23.384;2023-02-22T01:25:44;95400.28;;;5.95;nan
4617;BME280;2321;42.704;23.384;2023-02-22T01:28:11;95406.22;;;5.89;nan
4617;BME280;2321;42.704;23.384;2023-02-22T01:30:38;95383.91;;;5.75;nan
4617;BME280;2321;42.704;23.384;2023-02-22T01:33:06;95404.06;;;5.76;nan
4617;BME280;2321;42.704;23.384;2023-02-22T01:35:36;95408.66;;;5.74;nan
4617;BME280;2321;42.704;23.384;2023-02-22T01:38:05;95398.09;;;5.74;nan
4617;BME280;2321;42.704;23.384;2023-02-22T01:40:36;95401.03;;;5.54;nan
4617;BME280;2321;42.704;23.384;2023-02-22T01:43:09;95406.75;;;5.41;nan
4617;BME280;2321;42.704;23.384;2023-02-22T01:45:44;95400.50;;;5.42;nan
4617;BME280;2321;42.704;23.384;2023-02-22T01:48:16;95392.06;;;5.38;nan
4617;BME280;2321;42.704;23.384;2023-02-22T01:50:49;95396.28;;;5.22;nan
4617;BME280;2321;42.704;23.384;2023-02-22T01:53:20;95401.56;;;5.22;nan
4617;BME280;2321;42.704;23.384;2023-02-22T01:55:48;95406.50;;;5.17;nan
4617;BME280;2321;42.704;23.384;2023-02-22T01:58:16;95404.19;;;5.14;nan
4617;BME280;2321;42.704;23.384;2023-02-22T02:00:44;95406.78;;;5.06;nan
4617;BME280;2321;42.704;23.384;2023-02-22T02:03:16;95401.84;;;5.11;nan
4617;BME280;2321;42.704;23.384;2023-02-22T02:05:45;95407.44;;;5.08;nan
4617;BME280;2321;42.704;23.384;2023-02-22T02:08:23;95409.88;;;5.01;nan
4617;BME280;2321;42.704;23.384;2023-02-22T02:10:54;95412.19;;;4.96;nan
4617;BME280;2321;42.704;23.384;2023-02-22T02:13:23;95412.94;;;5.15;nan
4617;BME280;2321;42.704;23.384;2023-02-22T02:15:52;95412.72;;;5.08;nan
4617;BME280;2321;42.704;23.384;2023-02-22T02:18:20;95403.63;;;5.02;nan
4617;BME280;2321;42.704;23.384;2023-02-22T02:21:23;95409.06;;;5.00;nan
4617;BME280;2321;42.704;23.384;2023-02-22T02:24:11;95410.38;;;4.96;nan
4617;BME280;2321;42.704;23.384;2023-02-22T02:27:15;95409.53;;;4.96;nan
4617;BME280;2321;42.704;23.384;2023-02-22T02:30:09;95410.81;;;4.92;nan
4617;BME280;2321;42.704;23.384;2023-02-22T02:32:50;95417.59;;;4.94;nan
4617;BME280;2321;42.704;23.384;2023-02-22T02:35:23;95413.00;;;4.96;nan
4617;BME280;2321;42.704;23.384;2023-02-22T02:37:56;95410.19;;;4.98;nan
4617;BME280;2321;42.704;23.384;2023-02-22T02:40:29;95410.50;;;4.95;nan
4617;BME280;2321;42.704;23.384;2023-02-22T02:43:05;95420.09;;;4.96;nan
4617;BME280;2321;42.704;23.384;2023-02-22T02:45:39;95408.34;;;4.90;nan
4617;BME280;2321;42.704;23.384;2023-02-22T02:48:11;95417.50;;;5.04;nan
4617;BME280;2321;42.704;23.384;2023-02-22T02:50:43;95421.28;;;5.01;nan
4617;BME280;2321;42.704;23.384;2023-02-22T02:53:13;95432.50;;;5.04;nan
4617;BME280;2321;42.704;23.384;2023-02-22T02:55:42;95428.56;;;5.08;nan
4617;BME280;2321;42.704;23.384;2023-02-22T02:58:16;95431.50;;;5.05;nan
4617;BME280;2321;42.704;23.384;2023-02-22T03:00:44;95420.44;;;5.01;nan
4617;BME280;2321;42.704;23.384;2023-02-22T03:03:27;95425.25;;;5.06;nan
4617;BME280;2321;42.704;23.384;2023-02-22T03:06:11;95428.03;;;5.04;nan
4617;BME280;2321;42.704;23.384;2023-02-22T03:08:48;95431.56;;;5.13;nan
4617;BME280;2321;42.704;23.384;2023-02-22T03:11:20;95428.41;;;5.09;nan
4617;BME280;2321;42.704;23.384;2023-02-22T03:13:52;95432.88;;;5.09;nan
4617;BME280;2321;42.704;23.384;2023-02-22T03:16:28;95437.66;;;5.14;nan
4617;BME280;2321;42.704;23.384;2023-02-22T03:19:06;95427.13;;;5.22;nan
4617;BME280;2321;42.704;23.384;2023-02-22T03:21:42;95426.69;;;5.27;nan
4617;BME280;2321;42.704;23.384;2023-02-22T03:24:17;95429.66;;;5.32;nan
4617;BME280;2321;42.704;23.384;2023-02-22T03:26:51;95417.13;;;5.34;nan
4617;BME280;2321;42.704;23.384;2023-02-22T03:29:23;95420.94;;;5.40;nan
4617;BME280;2321;42.704;23.384;2023-02-22T03:31:55;95422.41;;;5.34;nan
4617;BME280;2321;42.704;23.384;2023-02-22T03:34:31;95424.72;;;5.37;nan
4617;BME280;2321;42.704;23.384;2023-02-22T03:37:03;95425.78;;;5.53;nan
4617;BME280;2321;42.704;23.384;2023-02-22T03:39:35;95432.22;;;5.59;nan
4617;BME280;2321;42.704;23.384;2023-02-22T03:42:07;95430.75;;;5.56;nan
4617;BME280;2321;42.704;23.384;2023-02-22T03:44:37;95428.41;;;5.53;nan
4617;BME280;2321;42.704;23.384;2023-02-22T03:47:08;95436.34;;;5.53;nan
4617;BME280;2321;42.704;23.384;2023-02-22T03:49:43;95435.66;;;5.42;nan
4617;BME280;2321;42.704;23.384;2023-02-22T03:52:12;95433.03;;;5.42;nan
4617;BME280;2321;42.704;23.384;2023-02-22T03:54:39;95428.84;;;5.40;nan
4617;BME280;2321;42.704;23.384;2023-02-22T03:57:12;95438.22;;;5.26;nan
4617;BME280;2321;42.704;23.384;2023-02-22T03:59:40;95435.88;;;5.22;nan
4617;BME280;2321;42.704;23.384;2023-02-22T04:02:07;95430.47;;;5.24;nan
4617;BME280;2321;42.704;23.384;2023-02-22T04:04:34;95428.31;;;5.28;nan
4617;BME280;2321;42.704;23.384;2023-02-22T04:07:02;95432.63;;;5.29;nan
4617;BME280;2321;42.704;23.384;2023-02-22T04:09:29;95430.28;;;5.26;nan
4617;BME280;2321;42.704;23.384;2023-02-22T04:11:57;95428.31;;;5.28;nan
4617;BME280;2321;42.704;23.384;2023-02-22T04:14:24;95432.31;;;5.32;nan
4617;BME280;2321;42.704;23.384;2023-02-22T04:16:51;95429.34;;;5.35;nan
4617;BME280;2321;42.704;23.384;2023-02-22T04:19:17;95438.72;;;5.29;nan
4617;BME280;2321;42.704;23.384;2023-02-22T04:21:45;95434.41;;;5.20;nan
4617;BME280;2321;42.704;23.384;2023-02-22T04:24:13;95438.50;;;5.14;nan
4617;BME280;2321;42.704;23.384;2023-02-22T04:26:40;95439.44;;;5.05;nan
4617;BME280;2321;42.704;23.384;2023-02-22T04:29:08;95435.50;;;4.82;nan
4617;BME280;2321;42.704;23.384;2023-02-22T04:31:35;95444.38;;;4.54;nan
4617;BME280;2321;42.704;23.384;2023-02-22T04:34:02;95452.44;;;4.53;nan
4617;BME280;2321;42.704;23.384;2023-02-22T04:36:29;95441.75;;;4.36;nan
4617;BME280;2321;42.704;23.384;2023-02-22T04:38:57;95439.66;;;4.21;nan
4617;BME280;2321;42.704;23.384;2023-02-22T04:41:25;95441.69;;;4.09;nan
4617;BME280;2321;42.704;23.384;2023-02-22T04:43:52;95441.03;;;4.07;nan
4617;BME280;2321;42.704;23.384;2023-02-22T04:46:19;95446.66;;;3.94;nan
4617;BME280;2321;42.704;23.384;2023-02-22T04:48:46;95442.13;;;3.86;nan
4617;BME280;2321;42.704;23.384;2023-02-22T04:51:13;95437.47;;;3.80;nan
4617;BME280;2321;42.704;23.384;2023-02-22T04:53:40;95439.31;;;3.69;nan
4617;BME280;2321;42.704;23.384;2023-02-22T04:56:07;95442.75;;;3.52;nan
4617;BME280;2321;42.704;23.384;2023-02-22T04:58:36;95445.47;;;3.32;nan
4617;BME280;2321;42.704;23.384;2023-02-22T05:01:03;95444.88;;;3.38;nan
4617;BME280;2321;42.704;23.384;2023-02-22T05:03:30;95438.69;;;3.29;nan
4617;BME280;2321;42.704;23.384;2023-02-22T05:05:56;95441.19;;;3.31;nan
4617;BME280;2321;42.704;23.384;2023-02-22T05:08:23;95446.47;;;3.31;nan
4617;BME280;2321;42.704;23.384;2023-02-22T05:10:50;95453.84;;;3.17;nan
4617;BME280;2321;42.704;23.384;2023-02-22T05:13:17;95455.09;;;3.13;nan
4617;BME280;2321;42.704;23.384;2023-02-22T05:15:46;95455.97;;;3.03;nan
4617;BME280;2321;42.704;23.384;2023-02-22T05:18:13;95458.44;;;3.05;nan
4617;BME280;2321;42.704;23.384;2023-02-22T05:20:40;95452.22;;;3.06;nan
4617;BME280;2321;42.704;23.384;2023-02-22T05:23:07;95441.94;;;3.13;nan
4617;BME280;2321;42.704;23.384;2023-02-22T05:25:34;95444.16;;;3.08;nan
4617;BME280;2321;42.704;23.384;2023-02-22T05:28:03;95452.63;;;3.11;nan
4617;BME280;2321;42.704;23.384;2023-02-22T05:30:33;95454.97;;;3.04;nan
4617;BME280;2321;42.704;23.384;2023-02-22T05:33:05;95466.44;;;3.13;nan
4617;BME280;2321;42.704;23.384;2023-02-22T05:35:33;95471.56;;;3.15;nan
4617;BME280;2321;42.704;23.384;2023-02-22T05:38:01;95444.94;;;2.90;nan
4617;BME280;2321;42.704;23.384;2023-02-22T05:40:29;95484.03;;;3.13;nan
4617;BME280;2321;42.704;23.384;2023-02-22T05:42:57;95485.56;;;3.15;nan
4617;BME280;2321;42.704;23.384;2023-02-22T05:45:25;95482.38;;;3.22;nan
4617;BME280;2321;42.704;23.384;2023-02-22T05:47:53;95490.53;;;3.19;nan
4617;BME280;2321;42.704;23.384;2023-02-22T05:50:21;95486.06;;;3.29;nan
4617;BME280;2321;42.704;23.384;2023-02-22T05:52:49;95484.22;;;3.40;nan
4617;BME280;2321;42.704;23.384;2023-02-22T05:55:18;95486.50;;;3.53;nan
4617;BME280;2321;42.704;23.384;2023-02-22T05:57:46;95479.41;;;3.63;nan
4617;BME280;2321;42.704;23.384;2023-02-22T06:00:16;95492.56;;;3.63;nan
4617;BME280;2321;42.704;23.384;2023-02-22T06:02:43;95488.09;;;3.74;nan
4617;BME280;2321;42.704;23.384;2023-02-22T06:05:11;95487.84;;;3.95;nan
4617;BME280;2321;42.704;23.384;2023-02-22T06:07:39;95487.69;;;3.97;nan
4617;BME280;2321;42.704;23.384;2023-02-22T06:10:06;95490.56;;;4.03;nan
4617;BME280;2321;42.704;23.384;2023-02-22T06:12:33;95486.44;;;4.19;nan
4617;BME280;2321;42.704;23.384;2023-02-22T06:15:00;95491.69;;;4.38;nan
4617;BME280;2321;42.704;23.384;2023-02-22T06:17:27;95492.97;;;4.52;nan
4617;BME280;2321;42.704;23.384;2023-02-22T06:19:55;95496.50;;;4.61;nan
4617;BME280;2321;42.704;23.384;2023-02-22T06:22:24;95498.22;;;4.70;nan
4617;BME280;2321;42.704;23.384;2023-02-22T06:24:52;95486.75;;;4.79;nan
4617;BME280;2321;42.704;23.384;2023-02-22T06:27:19;95497.06;;;4.91;nan
4617;BME280;2321;42.704;23.384;2023-02-22T06:29:46;95493.41;;;5.10;nan
4617;BME280;2321;42.704;23.384;2023-02-22T06:32:13;95499.25;;;5.22;nan
4617;BME280;2321;42.704;23.384;2023-02-22T06:34:40;95504.22;;;5.26;nan
4617;BME280;2321;42.704;23.384;2023-02-22T06:37:07;95507.84;;;5.25;nan
4617;BME280;2321;42.704;23.384;2023-02-22T06:39:34;95510.47;;;5.25;nan
4617;BME280;2321;42.704;23.384;2023-02-22T06:42:03;95506.81;;;5.17;nan
4617;BME280;2321;42.704;23.384;2023-02-22T06:44:30;95507.53;;;5.01;nan
4617;BME280;2321;42.704;23.384;2023-02-22T06:46:57;95504.22;;;4.99;nan
4617;BME280;2321;42.704;23.384;2023-02-22T06:49:25;95503.09;;;5.01;nan
4617;BME280;2321;42.704;23.384;2023-02-22T06:51:53;95501.84;;;5.14;nan
4617;BME280;2321;42.704;23.384;2023-02-22T06:54:20;95510.22;;;5.36;nan
4617;BME280;2321;42.704;23.384;2023-02-22T06:56:48;95505.34;;;5.50;nan
4617;BME280;2321;42.704;23.384;2023-02-22T06:59:16;95508.41;;;5.72;nan
4617;BME280;2321;42.704;23.384;2023-02-22T07:01:44;95496.22;;;5.79;nan
4617;BME280;2321;42.704;23.384;2023-02-22T07:04:12;95503.69;;;5.92;nan
4617;BME280;2321;42.704;23.384;2023-02-22T07:06:39;95503.69;;;5.92;nan
4617;BME280;2321;42.704;23.384;2023-02-22T07:09:10;95511.16;;;5.97;nan
4617;BME280;2321;42.704;23.384;2023-02-22T07:11:37;95513.66;;;6.07;nan
4617;BME280;2321;42.704;23.384;2023-02-22T07:14:04;95515.38;;;6.16;nan
4617;BME280;2321;42.704;23.384;2023-02-22T07:16:32;95509.91;;;6.26;nan
4617;BME280;2321;42.704;23.384;2023-02-22T07:18:59;95511.09;;;6.32;nan
4617;BME280;2321;42.704;23.384;2023-02-22T07:21:27;95502.16;;;6.41;nan
4617;BME280;2321;42.704;23.384;2023-02-22T07:23:55;95493.13;;;6.52;nan
4617;BME280;2321;42.704;23.384;2023-02-22T07:26:24;95495.94;;;6.68;nan
4617;BME280;2321;42.704;23.384;2023-02-22T07:28:51;95493.94;;;6.86;nan
4617;BME280;2321;42.704;23.384;2023-02-22T07:31:18;95500.38;;;7.01;nan
4617;BME280;2321;42.704;23.384;2023-02-22T07:33:47;95493.91;;;7.03;nan
4617;BME280;2321;42.704;23.384;2023-02-22T07:36:14;95492.91;;;7.13;nan
4617;BME280;2321;42.704;23.384;2023-02-22T07:38:42;95489.06;;;7.24;nan
4617;BME280;2321;42.704;23.384;2023-02-22T07:41:09;95495.66;;;7.45;nan
4617;BME280;2321;42.704;23.384;2023-02-22T07:43:36;95484.38;;;7.59;nan
4617;BME280;2321;42.704;23.384;2023-02-22T07:46:04;95488.28;;;7.72;nan
4617;BME280;2321;42.704;23.384;2023-02-22T07:48:31;95489.19;;;7.96;nan
4617;BME280;2321;42.704;23.384;2023-02-22T07:50:59;95490.59;;;8.07;nan
4617;BME280;2321;42.704;23.384;2023-02-22T07:53:28;95494.38;;;8.13;nan
4617;BME280;2321;42.704;23.384;2023-02-22T07:55:56;95494.94;;;8.32;nan
4617;BME280;2321;42.704;23.384;2023-02-22T07:58:24;95487.72;;;8.49;nan
4617;BME280;2321;42.704;23.384;2023-02-22T08:00:52;95486.97;;;8.64;nan
4617;BME280;2321;42.704;23.384;2023-02-22T08:03:21;95484.38;;;8.79;nan
4617;BME280;2321;42.704;23.384;2023-02-22T08:05:50;95497.50;;;8.96;nan
4617;BME280;2321;42.704;23.384;2023-02-22T08:08:19;95490.56;;;9.10;nan
4617;BME280;2321;42.704;23.384;2023-02-22T08:10:50;95490.88;;;9.30;nan
4617;BME280;2321;42.704;23.384;2023-02-22T08:13:18;95481.06;;;9.46;nan
4617;BME280;2321;42.704;23.384;2023-02-22T08:15:46;95488.50;;;9.66;nan
4617;BME280;2321;42.704;23.384;2023-02-22T08:18:16;95477.56;;;9.76;nan
4617;BME280;2321;42.704;23.384;2023-02-22T08:20:44;95477.75;;;9.89;nan
4617;BME280;2321;42.704;23.384;2023-02-22T08:23:12;95482.69;;;10.08;nan
4617;BME280;2321;42.704;23.384;2023-02-22T08:25:41;95478.91;;;10.17;nan
4617;BME280;2321;42.704;23.384;2023-02-22T08:28:11;95483.09;;;10.27;nan
4617;BME280;2321;42.704;23.384;2023-02-22T08:30:40;95468.53;;;10.44;nan
4617;BME280;2321;42.704;23.384;2023-02-22T08:33:08;95474.59;;;10.53;nan
4617;BME280;2321;42.704;23.384;2023-02-22T08:35:39;95460.56;;;10.66;nan
4617;BME280;2321;42.704;23.384;2023-02-22T08:38:07;95462.72;;;10.78;nan
4617;BME280;2321;42.704;23.384;2023-02-22T08:40:42;95463.47;;;10.94;nan
4617;BME280;2321;42.704;23.384;2023-02-22T08:43:09;95454.09;;;11.05;nan
4617;BME280;2321;42.704;23.384;2023-02-22T08:45:37;95458.03;;;11.09;nan
4617;BME280;2321;42.704;23.384;2023-02-22T08:48:05;95460.38;;;11.19;nan
4617;BME280;2321;42.704;23.384;2023-02-22T08:50:32;95464.16;;;11.38;nan
4617;BME280;2321;42.704;23.384;2023-02-22T08:53:01;95457.31;;;11.58;nan
4617;BME280;2321;42.704;23.384;2023-02-22T08:55:30;95450.97;;;11.59;nan
4617;BME280;2321;42.704;23.384;2023-02-22T08:58:00;95450.41;;;11.70;nan
4617;BME280;2321;42.704;23.384;2023-02-22T09:00:28;95450.03;;;11.87;nan
4617;BME280;2321;42.704;23.384;2023-02-22T09:02:57;95458.16;;;12.07;nan
4617;BME280;2321;42.704;23.384;2023-02-22T09:05:24;95453.47;;;12.16;nan
4617;BME280;2321;42.704;23.384;2023-02-22T09:07:52;95454.94;;;12.26;nan
4617;BME280;2321;42.704;23.384;2023-02-22T09:10:22;95449.03;;;12.44;nan
4617;BME280;2321;42.704;23.384;2023-02-22T09:12:50;95450.28;;;12.55;nan
4617;BME280;2321;42.704;23.384;2023-02-22T09:15:18;95454.19;;;12.66;nan
4617;BME280;2321;42.704;23.384;2023-02-22T09:17:45;95442.06;;;12.77;nan
4617;BME280;2321;42.704;23.384;2023-02-22T09:20:13;95442.69;;;12.93;nan
4617;BME280;2321;42.704;23.384;2023-02-22T09:22:43;95447.00;;;13.07;nan
4617;BME280;2321;42.704;23.384;2023-02-22T09:25:11;95441.66;;;13.21;nan
4617;BME280;2321;42.704;23.384;2023-02-22T09:27:38;95444.91;;;13.37;nan
4617;BME280;2321;42.704;23.384;2023-02-22T09:30:07;95439.53;;;13.50;nan
4617;BME280;2321;42.704;23.384;2023-02-22T09:32:37;95431.69;;;13.63;nan
4617;BME280;2321;42.704;23.384;2023-02-22T09:35:04;95431.03;;;13.74;nan
4617;BME280;2321;42.704;23.384;2023-02-22T09:37:33;95432.25;;;13.85;nan
4617;BME280;2321;42.704;23.384;2023-02-22T09:40:00;95431.75;;;14.02;nan
4617;BME280;2321;42.704;23.384;2023-02-22T09:42:29;95429.03;;;14.15;nan
4617;BME280;2321;42.704;23.384;2023-02-22T09:45:02;95427.28;;;14.35;nan
4617;BME280;2321;42.704;23.384;2023-02-22T09:47:40;95416.25;;;14.50;nan
4617;BME280;2321;42.704;23.384;2023-02-22T09:50:12;95418.50;;;14.79;nan
4617;BME280;2321;42.704;23.384;2023-02-22T09:52:49;95417.75;;;14.97;nan
4617;BME280;2321;42.704;23.384;2023-02-22T09:55:27;95419.72;;;15.09;nan
4617;BME280;2321;42.704;23.384;2023-02-22T09:58:01;95414.31;;;15.16;nan
4617;BME280;2321;42.704;23.384;2023-02-22T10:00:31;95407.41;;;15.27;nan
4617;BME280;2321;42.704;23.384;2023-02-22T10:03:11;95404.75;;;15.45;nan
4617;BME280;2321;42.704;23.384;2023-02-22T10:05:43;95399.66;;;15.56;nan
4617;BME280;2321;42.704;23.384;2023-02-22T10:08:13;95395.78;;;15.71;nan
4617;BME280;2321;42.704;23.384;2023-02-22T10:10:41;95395.25;;;15.81;nan
4617;BME280;2321;42.704;23.384;2023-02-22T10:13:17;95393.66;;;15.92;nan
4617;BME280;2321;42.704;23.384;2023-02-22T10:15:50;95383.53;;;15.94;nan
4617;BME280;2321;42.704;23.384;2023-02-22T10:18:45;95378.28;;;16.18;nan
4617;BME280;2321;42.704;23.384;2023-02-22T10:24:27;95375.06;;;16.40;nan
4617;BME280;2321;42.704;23.384;2023-02-22T10:26:56;95369.34;;;16.48;nan
4617;BME280;2321;42.704;23.384;2023-02-22T10:29:30;95365.28;;;16.58;nan
4617;BME280;2321;42.704;23.384;2023-02-22T10:32:02;95357.34;;;16.63;nan
4617;BME280;2321;42.704;23.384;2023-02-22T10:34:36;95357.03;;;16.71;nan
4617;BME280;2321;42.704;23.384;2023-02-22T10:37:22;95342.88;;;16.88;nan
4617;BME280;2321;42.704;23.384;2023-02-22T10:39:54;95346.94;;;16.91;nan
4617;BME280;2321;42.704;23.384;2023-02-22T10:42:25;95342.97;;;16.93;nan
4617;BME280;2321;42.704;23.384;2023-02-22T10:44:53;95340.88;;;16.95;nan
4617;BME280;2321;42.704;23.384;2023-02-22T10:47:20;95333.03;;;17.06;nan
4617;BME280;2321;42.704;23.384;2023-02-22T10:49:53;95328.47;;;17.06;nan
4617;BME280;2321;42.704;23.384;2023-02-22T10:52:24;95319.81;;;17.16;nan
4617;BME280;2321;42.704;23.384;2023-02-22T10:54:54;95317.47;;;17.32;nan
4617;BME280;2321;42.704;23.384;2023-02-22T10:57:24;95316.75;;;17.37;nan
4617;BME280;2321;42.704;23.384;2023-02-22T10:59:52;95307.16;;;17.41;nan
4617;BME280;2321;42.704;23.384;2023-02-22T11:02:24;95314.47;;;17.58;nan
4617;BME280;2321;42.704;23.384;2023-02-22T11:04:56;95301.50;;;17.55;nan
4617;BME280;2321;42.704;23.384;2023-02-22T11:07:25;95306.19;;;17.59;nan
4617;BME280;2321;42.704;23.384;2023-02-22T11:09:54;95302.66;;;17.59;nan
4617;BME280;2321;42.704;23.384;2023-02-22T11:12:27;95300.66;;;17.66;nan
4617;BME280;2321;42.704;23.384;2023-02-22T11:14:54;95294.19;;;17.67;nan
4617;BME280;2321;42.704;23.384;2023-02-22T11:17:29;95293.91;;;17.81;nan
4617;BME280;2321;42.704;23.384;2023-02-22T11:19:58;95287.78;;;17.85;nan
4617;BME280;2321;42.704;23.384;2023-02-22T11:22:27;95285.78;;;17.93;nan
4617;BME280;2321;42.704;23.384;2023-02-22T11:24:59;95293.88;;;18.10;nan
4617;BME280;2321;42.704;23.384;2023-02-22T11:27:31;95278.06;;;18.14;nan
4617;BME280;2321;42.704;23.384;2023-02-22T11:30:19;95280.19;;;18.12;nan
4617;BME280;2321;42.704;23.384;2023-02-22T11:32:49;95266.03;;;18.04;nan
4617;BME280;2321;42.704;23.384;2023-02-22T11:35:34;95259.00;;;18.03;nan
4617;BME280;2321;42.704;23.384;2023-02-22T11:38:19;95261.84;;;18.26;nan
4617;BME280;2321;42.704;23.384;2023-02-22T11:41:12;95259.47;;;18.29;nan
4617;BME280;2321;42.704;23.384;2023-02-22T11:43:40;95263.72;;;18.43;nan
4617;BME280;2321;42.704;23.384;2023-02-22T11:46:11;95257.16;;;18.56;nan
4617;BME280;2321;42.704;23.384;2023-02-22T11:48:42;95256.28;;;18.67;nan
4617;BME280;2321;42.704;23.384;2023-02-22T11:51:25;95252.50;;;18.68;nan
4617;BME280;2321;42.704;23.384;2023-02-22T11:54:10;95246.28;;;18.68;nan
4617;BME280;2321;42.704;23.384;2023-02-22T11:56:45;95244.16;;;18.70;nan
4617;BME280;2321;42.704;23.384;2023-02-22T11:59:24;95252.00;;;18.71;nan
4617;BME280;2321;42.704;23.384;2023-02-22T12:01:58;95241.81;;;18.56;nan
4617;BME280;2321;42.704;23.384;2023-02-22T12:04:59;95238.50;;;18.49;nan
4617;BME280;2321;42.704;23.384;2023-02-22T12:07:37;95230.22;;;18.38;nan
4617;BME280;2321;42.704;23.384;2023-02-22T12:10:18;95226.22;;;18.41;nan
4617;BME280;2321;42.704;23.384;2023-02-22T12:13:05;95224.75;;;18.50;nan
4617;BME280;2321;42.704;23.384;2023-02-22T12:15:44;95226.47;;;18.57;nan
4617;BME280;2321;42.704;23.384;2023-02-22T12:18:19;95217.38;;;18.63;nan
4617;BME280;2321;42.704;23.384;2023-02-22T12:20:52;95217.09;;;18.82;nan
4617;BME280;2321;42.704;23.384;2023-02-22T12:23:25;95206.50;;;18.98;nan
4617;BME280;2321;42.704;23.384;2023-02-22T12:25:58;95200.91;;;19.04;nan
4617;BME280;2321;42.704;23.384;2023-02-22T12:28:32;95209.94;;;19.15;nan
4617;BME280;2321;42.704;23.384;2023-02-22T12:31:20;95206.19;;;19.16;nan
4617;BME280;2321;42.704;23.384;2023-02-22T12:33:57;95203.06;;;19.25;nan
4617;BME280;2321;42.704;23.384;2023-02-22T12:36:32;95204.25;;;19.34;nan
4617;BME280;2321;42.704;23.384;2023-02-22T12:39:20;95198.84;;;19.34;nan
4617;BME280;2321;42.704;23.384;2023-02-22T12:41:53;95196.75;;;19.42;nan
4617;BME280;2321;42.704;23.384;2023-02-22T12:44:24;95195.22;;;19.51;nan
4617;BME280;2321;42.704;23.384;2023-02-22T12:46:55;95187.94;;;19.52;nan
4617;BME280;2321;42.704;23.384;2023-02-22T12:49:29;95189.78;;;19.46;nan
4617;BME280;2321;42.704;23.384;2023-02-22T12:52:02;95196.19;;;19.40;nan
4617;BME280;2321;42.704;23.384;2023-02-22T12:54:39;95183.53;;;19.40;nan
4617;BME280;2321;42.704;23.384;2023-02-22T12:57:10;95183.06;;;19.48;nan
4617;BME280;2321;42.704;23.384;2023-02-22T12:59:45;95187.41;;;19.49;nan
4617;BME280;2321;42.704;23.384;2023-02-22T13:02:18;95176.84;;;19.48;nan
4617;BME280;2321;42.704;23.384;2023-02-22T13:04:46;95180.28;;;19.38;nan
4617;BME280;2321;42.704;23.384;2023-02-22T13:07:24;95180.50;;;19.36;nan
4617;BME280;2321;42.704;23.384;2023-02-22T13:10:25;95169.91;;;19.30;nan
4617;BME280;2321;42.704;23.384;2023-02-22T13:13:03;95180.50;;;19.36;nan
4617;BME280;2321;42.704;23.384;2023-02-22T13:15:43;95165.28;;;19.25;nan
4617;BME280;2321;42.704;23.384;2023-02-22T13:18:18;95172.50;;;19.19;nan
4617;BME280;2321;42.704;23.384;2023-02-22T13:20:52;95168.41;;;19.16;nan
4617;BME280;2321;42.704;23.384;2023-02-22T13:23:33;95170.19;;;19.28;nan
4617;BME280;2321;42.704;23.384;2023-02-22T13:26:11;95163.00;;;19.39;nan
4617;BME280;2321;42.704;23.384;2023-02-22T13:28:45;95170.59;;;19.42;nan
4617;BME280;2321;42.704;23.384;2023-02-22T13:31:24;95169.41;;;19.33;nan
4617;BME280;2321;42.704;23.384;2023-02-22T13:34:10;95173.69;;;19.29;nan
4617;BME280;2321;42.704;23.384;2023-02-22T13:36:52;95171.50;;;19.25;nan
4617;BME280;2321;42.704;23.384;2023-02-22T13:39:53;95163.69;;;19.29;nan
4617;BME280;2321;42.704;23.384;2023-02-22T13:42:42;95175.31;;;19.30;nan
4617;BME280;2321;42.704;23.384;2023-02-22T13:45:49;95170.16;;;19.05;nan
4617;BME280;2321;42.704;23.384;2023-02-22T13:48:49;95155.66;;;18.89;nan
4617;BME280;2321;42.704;23.384;2023-02-22T13:51:34;95158.38;;;18.89;nan
4617;BME280;2321;42.704;23.384;2023-02-22T13:54:07;95171.13;;;18.94;nan
4617;BME280;2321;42.704;23.384;2023-02-22T13:56:41;95165.59;;;18.83;nan
4617;BME280;2321;42.704;23.384;2023-02-22T13:59:23;95169.28;;;18.77;nan
4617;BME280;2321;42.704;23.384;2023-02-22T14:01:51;95158.50;;;18.77;nan
4617;BME280;2321;42.704;23.384;2023-02-22T14:04:43;95159.59;;;18.76;nan
4617;BME280;2321;42.704;23.384;2023-02-22T14:10:36;95161.50;;;18.81;nan